sensor_id;sensor_type;location;lat;lon;timestamp;pressure;altitude;pressure_sealevel;temperature;humidity
60697;BME280;46536;54.376;19.858;2022-12-18T00:01:34;103084.73;;;-3.89;70.76
60697;BME280;46536;54.376;19.858;2022-12-18T00:04:06;103080.90;;;-3.94;70.50
60697;BME280;46536;54.376;19.858;2022-12-18T00:06:36;103086.88;;;-4.04;70.27
60697;BME280;46536;54.376;19.858;2022-12-18T00:09:05;103097.61;;;-4.12;70.42
60697;BME280;46536;54.376;19.858;2022-12-18T00:11:34;103109.67;;;-4.20;70.40
60697;BME280;46536;54.376;19.858;2022-12-18T00:14:03;103114.03;;;-4.24;70.42
60697;BME280;46536;54.376;19.858;2022-12-18T00:16:32;103114.69;;;-4.27;70.63
60697;BME280;46536;54.376;19.858;2022-12-18T00:19:05;103112.67;;;-4.30;70.52
60697;BME280;46536;54.376;19.858;2022-12-18T00:21:34;103118.63;;;-4.32;70.66
60697;BME280;46536;54.376;19.858;2022-12-18T00:24:03;103115.42;;;-4.31;70.58
60697;BME280;46536;54.376;19.858;2022-12-18T00:26:33;103113.20;;;-4.32;70.44
60697;BME280;46536;54.376;19.858;2022-12-18T00:29:11;103117.47;;;-4.36;70.43
60697;BME280;46536;54.376;19.858;2022-12-18T00:31:43;103122.10;;;-4.35;70.51
60697;BME280;46536;54.376;19.858;2022-12-18T00:34:13;103127.90;;;-4.33;70.60
60697;BME280;46536;54.376;19.858;2022-12-18T00:36:42;103131.15;;;-4.30;70.33
60697;BME280;46536;54.376;19.858;2022-12-18T00:39:12;103135.90;;;-4.30;70.30
60697;BME280;46536;54.376;19.858;2022-12-18T00:41:44;103137.83;;;-4.29;70.59
60697;BME280;46536;54.376;19.858;2022-12-18T00:44:32;103141.63;;;-4.31;70.15
60697;BME280;46536;54.376;19.858;2022-12-18T00:47:01;103152.13;;;-4.36;70.03
60697;BME280;46536;54.376;19.858;2022-12-18T00:49:29;103150.63;;;-4.35;70.26
60697;BME280;46536;54.376;19.858;2022-12-18T00:51:58;103151.61;;;-4.34;70.20
60697;BME280;46536;54.376;19.858;2022-12-18T00:54:27;103153.61;;;-4.31;70.06
60697;BME280;46536;54.376;19.858;2022-12-18T00:56:56;103152.21;;;-4.32;69.99
60697;BME280;46536;54.376;19.858;2022-12-18T00:59:25;103150.71;;;-4.34;69.88
60697;BME280;46536;54.376;19.858;2022-12-18T01:01:54;103153.23;;;-4.37;69.92
60697;BME280;46536;54.376;19.858;2022-12-18T01:04:23;103161.39;;;-4.37;69.88
60697;BME280;46536;54.376;19.858;2022-12-18T01:06:52;103158.82;;;-4.35;69.76
60697;BME280;46536;54.376;19.858;2022-12-18T01:09:20;103158.23;;;-4.34;69.68
60697;BME280;46536;54.376;19.858;2022-12-18T01:11:49;103157.08;;;-4.33;69.41
60697;BME280;46536;54.376;19.858;2022-12-18T01:14:18;103152.21;;;-4.37;69.28
60697;BME280;46536;54.376;19.858;2022-12-18T01:16:47;103155.71;;;-4.40;69.24
60697;BME280;46536;54.376;19.858;2022-12-18T01:19:16;103157.36;;;-4.44;69.14
60697;BME280;46536;54.376;19.858;2022-12-18T01:21:47;103156.34;;;-4.47;68.99
60697;BME280;46536;54.376;19.858;2022-12-18T01:24:16;103156.39;;;-4.49;69.16
60697;BME280;46536;54.376;19.858;2022-12-18T01:26:45;103157.75;;;-4.51;69.03
60697;BME280;46536;54.376;19.858;2022-12-18T01:29:15;103163.44;;;-4.52;69.02
60697;BME280;46536;54.376;19.858;2022-12-18T01:31:44;103170.06;;;-4.52;68.95
60697;BME280;46536;54.376;19.858;2022-12-18T01:34:13;103170.01;;;-4.53;68.79
60697;BME280;46536;54.376;19.858;2022-12-18T01:36:42;103170.77;;;-4.55;68.82
60697;BME280;46536;54.376;19.858;2022-12-18T01:39:13;103169.97;;;-4.56;68.59
60697;BME280;46536;54.376;19.858;2022-12-18T01:41:42;103175.10;;;-4.58;68.62
60697;BME280;46536;54.376;19.858;2022-12-18T01:49:54;103170.02;;;-4.71;68.44
60697;BME280;46536;54.376;19.858;2022-12-18T01:52:26;103171.04;;;-4.76;67.82
60697;BME280;46536;54.376;19.858;2022-12-18T01:54:57;103176.23;;;-4.85;67.82
60697;BME280;46536;54.376;19.858;2022-12-18T01:57:28;103180.68;;;-4.95;67.94
60697;BME280;46536;54.376;19.858;2022-12-18T02:00:03;103183.20;;;-5.03;67.93
60697;BME280;46536;54.376;19.858;2022-12-18T02:02:41;103183.28;;;-5.12;68.01
60697;BME280;46536;54.376;19.858;2022-12-18T02:05:13;103182.61;;;-5.17;68.21
60697;BME280;46536;54.376;19.858;2022-12-18T02:16:18;103192.15;;;-5.43;68.46
60697;BME280;46536;54.376;19.858;2022-12-18T02:18:59;103194.89;;;-5.48;68.41
60697;BME280;46536;54.376;19.858;2022-12-18T02:21:49;103195.39;;;-5.55;68.51
60697;BME280;46536;54.376;19.858;2022-12-18T02:24:42;103194.16;;;-5.63;68.76
60697;BME280;46536;54.376;19.858;2022-12-18T02:27:15;103191.79;;;-5.68;68.87
60697;BME280;46536;54.376;19.858;2022-12-18T02:29:54;103196.66;;;-5.74;68.73
60697;BME280;46536;54.376;19.858;2022-12-18T02:32:32;103200.16;;;-5.82;68.70
60697;BME280;46536;54.376;19.858;2022-12-18T02:35:04;103198.54;;;-5.88;68.81
60697;BME280;46536;54.376;19.858;2022-12-18T02:37:34;103204.19;;;-5.95;69.04
60697;BME280;46536;54.376;19.858;2022-12-18T02:40:06;103204.42;;;-5.98;68.97
60697;BME280;46536;54.376;19.858;2022-12-18T02:42:37;103203.21;;;-6.04;69.14
60697;BME280;46536;54.376;19.858;2022-12-18T02:45:07;103204.65;;;-6.05;69.22
60697;BME280;46536;54.376;19.858;2022-12-18T02:47:39;103205.17;;;-6.05;68.89
60697;BME280;46536;54.376;19.858;2022-12-18T02:50:33;103211.24;;;-6.05;68.71
60697;BME280;46536;54.376;19.858;2022-12-18T02:53:31;103216.02;;;-6.05;68.84
60697;BME280;46536;54.376;19.858;2022-12-18T02:56:13;103220.20;;;-6.03;68.80
60697;BME280;46536;54.376;19.858;2022-12-18T03:02:02;103221.61;;;-6.07;68.45
60697;BME280;46536;54.376;19.858;2022-12-18T03:07:37;103229.46;;;-6.22;68.47
60697;BME280;46536;54.376;19.858;2022-12-18T03:10:13;103229.35;;;-6.28;68.40
60697;BME280;46536;54.376;19.858;2022-12-18T03:12:49;103227.95;;;-6.34;68.31
60697;BME280;46536;54.376;19.858;2022-12-18T03:15:30;103229.89;;;-6.40;68.16
60697;BME280;46536;54.376;19.858;2022-12-18T03:18:11;103228.88;;;-6.51;68.31
60697;BME280;46536;54.376;19.858;2022-12-18T03:20:43;103225.06;;;-6.59;68.27
60697;BME280;46536;54.376;19.858;2022-12-18T03:23:18;103231.73;;;-6.65;68.34
60697;BME280;46536;54.376;19.858;2022-12-18T03:25:58;103230.89;;;-6.70;68.34
60697;BME280;46536;54.376;19.858;2022-12-18T03:28:39;103234.10;;;-6.77;68.41
60697;BME280;46536;54.376;19.858;2022-12-18T03:31:12;103235.09;;;-6.81;68.49
60697;BME280;46536;54.376;19.858;2022-12-18T03:33:51;103242.26;;;-6.85;68.61
60697;BME280;46536;54.376;19.858;2022-12-18T03:36:22;103240.74;;;-6.87;68.56
60697;BME280;46536;54.376;19.858;2022-12-18T03:38:52;103243.52;;;-6.88;68.61
60697;BME280;46536;54.376;19.858;2022-12-18T03:41:32;103247.13;;;-6.90;68.70
60697;BME280;46536;54.376;19.858;2022-12-18T03:44:35;103250.96;;;-6.95;68.92
60697;BME280;46536;54.376;19.858;2022-12-18T03:50:05;103259.55;;;-6.97;68.80
60697;BME280;46536;54.376;19.858;2022-12-18T03:55:49;103262.36;;;-6.96;68.57
60697;BME280;46536;54.376;19.858;2022-12-18T03:58:24;103265.73;;;-6.96;68.28
60697;BME280;46536;54.376;19.858;2022-12-18T04:01:12;103271.77;;;-6.96;68.33
60697;BME280;46536;54.376;19.858;2022-12-18T04:03:45;103273.09;;;-6.99;68.33
60697;BME280;46536;54.376;19.858;2022-12-18T04:06:16;103277.31;;;-7.04;68.53
60697;BME280;46536;54.376;19.858;2022-12-18T04:08:46;103275.30;;;-7.10;68.58
60697;BME280;46536;54.376;19.858;2022-12-18T04:11:18;103279.06;;;-7.16;68.72
60697;BME280;46536;54.376;19.858;2022-12-18T04:13:47;103278.48;;;-7.24;68.88
60697;BME280;46536;54.376;19.858;2022-12-18T04:16:23;103277.80;;;-7.28;68.76
60697;BME280;46536;54.376;19.858;2022-12-18T04:18:54;103281.73;;;-7.32;68.99
60697;BME280;46536;54.376;19.858;2022-12-18T04:21:24;103285.09;;;-7.34;68.98
60697;BME280;46536;54.376;19.858;2022-12-18T04:23:53;103280.42;;;-7.34;69.10
60697;BME280;46536;54.376;19.858;2022-12-18T04:26:22;103280.36;;;-7.32;68.88
60697;BME280;46536;54.376;19.858;2022-12-18T04:29:13;103284.29;;;-7.32;68.83
60697;BME280;46536;54.376;19.858;2022-12-18T04:31:43;103281.67;;;-7.31;68.77
60697;BME280;46536;54.376;19.858;2022-12-18T04:34:11;103283.77;;;-7.30;68.62
60697;BME280;46536;54.376;19.858;2022-12-18T04:36:45;103290.79;;;-7.29;68.65
60697;BME280;46536;54.376;19.858;2022-12-18T04:39:18;103295.56;;;-7.28;68.56
60697;BME280;46536;54.376;19.858;2022-12-18T04:41:46;103302.35;;;-7.28;68.56
60697;BME280;46536;54.376;19.858;2022-12-18T04:44:15;103310.05;;;-7.26;68.69
60697;BME280;46536;54.376;19.858;2022-12-18T04:46:44;103312.88;;;-7.22;68.80
60697;BME280;46536;54.376;19.858;2022-12-18T04:49:13;103314.58;;;-7.20;68.84
60697;BME280;46536;54.376;19.858;2022-12-18T04:51:41;103317.02;;;-7.17;68.67
60697;BME280;46536;54.376;19.858;2022-12-18T04:54:10;103320.92;;;-7.16;68.62
60697;BME280;46536;54.376;19.858;2022-12-18T04:56:38;103328.35;;;-7.17;68.71
60697;BME280;46536;54.376;19.858;2022-12-18T04:59:07;103332.40;;;-7.17;68.68
60697;BME280;46536;54.376;19.858;2022-12-18T05:01:36;103333.63;;;-7.16;68.91
60697;BME280;46536;54.376;19.858;2022-12-18T05:04:05;103333.59;;;-7.16;68.79
60697;BME280;46536;54.376;19.858;2022-12-18T05:06:33;103329.95;;;-7.13;68.75
60697;BME280;46536;54.376;19.858;2022-12-18T05:09:02;103329.56;;;-7.06;68.85
60697;BME280;46536;54.376;19.858;2022-12-18T05:11:31;103325.84;;;-6.99;68.34
60697;BME280;46536;54.376;19.858;2022-12-18T05:13:59;103333.34;;;-6.94;68.25
60697;BME280;46536;54.376;19.858;2022-12-18T05:16:28;103335.90;;;-6.93;68.17
60697;BME280;46536;54.376;19.858;2022-12-18T05:18:56;103333.41;;;-6.91;67.96
60697;BME280;46536;54.376;19.858;2022-12-18T05:21:26;103334.87;;;-6.87;67.91
60697;BME280;46536;54.376;19.858;2022-12-18T05:23:54;103343.97;;;-6.85;67.69
60697;BME280;46536;54.376;19.858;2022-12-18T05:26:23;103346.78;;;-6.84;67.30
60697;BME280;46536;54.376;19.858;2022-12-18T05:28:51;103349.00;;;-6.86;67.00
60697;BME280;46536;54.376;19.858;2022-12-18T05:31:20;103351.39;;;-6.90;66.88
60697;BME280;46536;54.376;19.858;2022-12-18T05:33:48;103355.45;;;-6.96;66.81
60697;BME280;46536;54.376;19.858;2022-12-18T05:36:17;103352.16;;;-7.02;66.94
60697;BME280;46536;54.376;19.858;2022-12-18T05:38:45;103354.39;;;-7.06;67.06
60697;BME280;46536;54.376;19.858;2022-12-18T05:41:14;103354.58;;;-7.10;67.47
60697;BME280;46536;54.376;19.858;2022-12-18T05:43:43;103357.19;;;-7.11;67.72
60697;BME280;46536;54.376;19.858;2022-12-18T05:46:16;103353.80;;;-7.11;67.75
60697;BME280;46536;54.376;19.858;2022-12-18T05:48:46;103357.52;;;-7.11;67.75
60697;BME280;46536;54.376;19.858;2022-12-18T05:51:17;103358.06;;;-7.12;67.47
60697;BME280;46536;54.376;19.858;2022-12-18T05:53:46;103366.64;;;-7.15;67.74
60697;BME280;46536;54.376;19.858;2022-12-18T05:56:19;103370.38;;;-7.17;67.90
60697;BME280;46536;54.376;19.858;2022-12-18T05:58:47;103376.71;;;-7.18;68.24
60697;BME280;46536;54.376;19.858;2022-12-18T06:01:23;103378.38;;;-7.16;68.35
60697;BME280;46536;54.376;19.858;2022-12-18T06:03:52;103377.43;;;-7.15;68.16
60697;BME280;46536;54.376;19.858;2022-12-18T06:06:26;103381.84;;;-7.17;68.14
60697;BME280;46536;54.376;19.858;2022-12-18T06:08:56;103377.16;;;-7.21;68.62
60697;BME280;46536;54.376;19.858;2022-12-18T06:11:26;103379.26;;;-7.22;68.67
60697;BME280;46536;54.376;19.858;2022-12-18T06:13:56;103384.77;;;-7.21;68.64
60697;BME280;46536;54.376;19.858;2022-12-18T06:16:30;103393.65;;;-7.19;68.60
60697;BME280;46536;54.376;19.858;2022-12-18T06:19:00;103396.45;;;-7.18;68.57
60697;BME280;46536;54.376;19.858;2022-12-18T06:21:29;103398.77;;;-7.16;68.78
60697;BME280;46536;54.376;19.858;2022-12-18T06:23:59;103398.77;;;-7.14;69.05
60697;BME280;46536;54.376;19.858;2022-12-18T06:26:28;103410.20;;;-7.13;69.10
60697;BME280;46536;54.376;19.858;2022-12-18T06:28:57;103418.88;;;-7.10;68.97
60697;BME280;46536;54.376;19.858;2022-12-18T06:31:26;103417.05;;;-7.10;69.08
60697;BME280;46536;54.376;19.858;2022-12-18T06:33:54;103419.51;;;-7.09;69.04
60697;BME280;46536;54.376;19.858;2022-12-18T06:36:23;103418.92;;;-7.12;69.00
60697;BME280;46536;54.376;19.858;2022-12-18T06:38:52;103420.77;;;-7.14;69.08
60697;BME280;46536;54.376;19.858;2022-12-18T06:41:21;103423.13;;;-7.14;68.93
60697;BME280;46536;54.376;19.858;2022-12-18T06:43:49;103420.89;;;-7.17;69.11
60697;BME280;46536;54.376;19.858;2022-12-18T06:46:21;103426.20;;;-7.20;69.17
60697;BME280;46536;54.376;19.858;2022-12-18T06:48:50;103429.43;;;-7.22;69.58
60697;BME280;46536;54.376;19.858;2022-12-18T06:51:24;103430.04;;;-7.23;69.84
60697;BME280;46536;54.376;19.858;2022-12-18T06:53:52;103434.95;;;-7.21;69.76
60697;BME280;46536;54.376;19.858;2022-12-18T06:56:21;103437.54;;;-7.17;69.82
60697;BME280;46536;54.376;19.858;2022-12-18T06:58:50;103439.03;;;-7.14;69.90
60697;BME280;46536;54.376;19.858;2022-12-18T07:01:19;103438.66;;;-7.12;69.88
60697;BME280;46536;54.376;19.858;2022-12-18T07:03:55;103442.44;;;-7.11;69.95
60697;BME280;46536;54.376;19.858;2022-12-18T07:06:25;103445.14;;;-7.09;70.00
60697;BME280;46536;54.376;19.858;2022-12-18T07:08:53;103446.09;;;-7.06;69.69
60697;BME280;46536;54.376;19.858;2022-12-18T07:11:23;103454.30;;;-7.02;69.51
60697;BME280;46536;54.376;19.858;2022-12-18T07:13:52;103459.88;;;-6.98;69.51
60697;BME280;46536;54.376;19.858;2022-12-18T07:16:21;103464.84;;;-6.95;69.52
60697;BME280;46536;54.376;19.858;2022-12-18T07:18:54;103467.70;;;-6.91;69.48
60697;BME280;46536;54.376;19.858;2022-12-18T07:21:24;103468.64;;;-6.87;69.44
60697;BME280;46536;54.376;19.858;2022-12-18T07:23:52;103471.12;;;-6.84;69.40
60697;BME280;46536;54.376;19.858;2022-12-18T07:26:22;103475.81;;;-6.80;69.30
60697;BME280;46536;54.376;19.858;2022-12-18T07:28:54;103480.45;;;-6.75;69.15
60697;BME280;46536;54.376;19.858;2022-12-18T07:31:23;103486.75;;;-6.70;68.73
60697;BME280;46536;54.376;19.858;2022-12-18T07:33:52;103487.58;;;-6.68;68.45
60697;BME280;46536;54.376;19.858;2022-12-18T07:36:24;103489.81;;;-6.70;68.31
60697;BME280;46536;54.376;19.858;2022-12-18T07:38:53;103488.41;;;-6.71;68.18
60697;BME280;46536;54.376;19.858;2022-12-18T07:41:22;103494.81;;;-6.66;68.59
60697;BME280;46536;54.376;19.858;2022-12-18T07:43:50;103490.64;;;-6.63;68.50
60697;BME280;46536;54.376;19.858;2022-12-18T07:46:19;103487.71;;;-6.60;68.53
60697;BME280;46536;54.376;19.858;2022-12-18T07:48:48;103486.56;;;-6.55;68.62
60697;BME280;46536;54.376;19.858;2022-12-18T07:51:17;103489.39;;;-6.51;68.79
60697;BME280;46536;54.376;19.858;2022-12-18T07:53:46;103483.20;;;-6.48;68.80
60697;BME280;46536;54.376;19.858;2022-12-18T07:56:20;103483.77;;;-6.45;68.90
60697;BME280;46536;54.376;19.858;2022-12-18T07:58:56;103488.88;;;-6.40;68.84
60697;BME280;46536;54.376;19.858;2022-12-18T08:01:24;103496.75;;;-6.37;69.01
60697;BME280;46536;54.376;19.858;2022-12-18T08:03:53;103500.73;;;-6.33;68.99
60697;BME280;46536;54.376;19.858;2022-12-18T08:06:22;103500.64;;;-6.28;69.40
60697;BME280;46536;54.376;19.858;2022-12-18T08:08:53;103496.88;;;-6.22;69.16
60697;BME280;46536;54.376;19.858;2022-12-18T08:11:23;103506.42;;;-6.17;69.02
60697;BME280;46536;54.376;19.858;2022-12-18T08:13:52;103511.72;;;-6.12;69.42
60697;BME280;46536;54.376;19.858;2022-12-18T08:16:22;103517.98;;;-6.05;69.34
60697;BME280;46536;54.376;19.858;2022-12-18T08:18:52;103517.05;;;-5.99;69.38
60697;BME280;46536;54.376;19.858;2022-12-18T08:21:24;103516.17;;;-5.95;69.27
60697;BME280;46536;54.376;19.858;2022-12-18T08:23:55;103513.50;;;-5.92;69.25
60697;BME280;46536;54.376;19.858;2022-12-18T08:26:26;103516.52;;;-5.90;69.27
60697;BME280;46536;54.376;19.858;2022-12-18T08:28:57;103518.35;;;-5.91;69.55
60697;BME280;46536;54.376;19.858;2022-12-18T08:31:26;103521.14;;;-5.87;69.59
60697;BME280;46536;54.376;19.858;2022-12-18T08:33:56;103519.85;;;-5.87;69.78
60697;BME280;46536;54.376;19.858;2022-12-18T08:36:25;103525.65;;;-5.86;69.81
60697;BME280;46536;54.376;19.858;2022-12-18T08:38:54;103535.55;;;-5.80;69.93
60697;BME280;46536;54.376;19.858;2022-12-18T08:41:24;103545.86;;;-5.71;70.02
60697;BME280;46536;54.376;19.858;2022-12-18T08:43:53;103553.41;;;-5.57;70.55
60697;BME280;46536;54.376;19.858;2022-12-18T08:46:41;103555.71;;;-5.44;70.22
60697;BME280;46536;54.376;19.858;2022-12-18T08:49:11;103557.27;;;-5.38;69.91
60697;BME280;46536;54.376;19.858;2022-12-18T08:51:40;103558.27;;;-5.32;69.97
60697;BME280;46536;54.376;19.858;2022-12-18T08:54:12;103554.26;;;-5.32;69.56
60697;BME280;46536;54.376;19.858;2022-12-18T08:56:41;103543.49;;;-5.33;69.66
60697;BME280;46536;54.376;19.858;2022-12-18T08:59:11;103536.80;;;-5.29;69.79
60697;BME280;46536;54.376;19.858;2022-12-18T09:01:47;103534.98;;;-5.26;69.91
60697;BME280;46536;54.376;19.858;2022-12-18T09:04:17;103542.50;;;-5.25;70.10
60697;BME280;46536;54.376;19.858;2022-12-18T09:06:46;103544.11;;;-5.24;70.03
60697;BME280;46536;54.376;19.858;2022-12-18T09:09:16;103546.19;;;-5.17;70.52
60697;BME280;46536;54.376;19.858;2022-12-18T09:11:45;103548.36;;;-5.01;70.76
60697;BME280;46536;54.376;19.858;2022-12-18T09:14:15;103545.95;;;-4.85;70.59
60697;BME280;46536;54.376;19.858;2022-12-18T09:16:44;103551.45;;;-4.70;70.61
60697;BME280;46536;54.376;19.858;2022-12-18T09:19:14;103546.45;;;-4.57;70.12
60697;BME280;46536;54.376;19.858;2022-12-18T09:21:44;103549.70;;;-4.42;70.12
60697;BME280;46536;54.376;19.858;2022-12-18T09:24:15;103554.10;;;-4.22;70.06
60697;BME280;46536;54.376;19.858;2022-12-18T09:26:45;103560.20;;;-3.96;69.83
60697;BME280;46536;54.376;19.858;2022-12-18T09:29:15;103556.27;;;-3.74;69.47
60697;BME280;46536;54.376;19.858;2022-12-18T09:31:46;103555.20;;;-3.56;69.15
60697;BME280;46536;54.376;19.858;2022-12-18T09:34:16;103558.77;;;-3.39;69.14
60697;BME280;46536;54.376;19.858;2022-12-18T09:36:45;103561.40;;;-3.19;68.92
60697;BME280;46536;54.376;19.858;2022-12-18T09:39:14;103556.33;;;-3.01;68.68
60697;BME280;46536;54.376;19.858;2022-12-18T09:41:50;103556.90;;;-2.81;68.07
60697;BME280;46536;54.376;19.858;2022-12-18T09:44:32;103559.52;;;-2.64;67.94
60697;BME280;46536;54.376;19.858;2022-12-18T09:47:16;103557.68;;;-2.42;67.81
60697;BME280;46536;54.376;19.858;2022-12-18T09:49:53;103552.74;;;-2.25;67.26
60697;BME280;46536;54.376;19.858;2022-12-18T09:52:27;103550.71;;;-2.11;67.14
60697;BME280;46536;54.376;19.858;2022-12-18T09:57:39;103552.02;;;-1.93;66.69
60697;BME280;46536;54.376;19.858;2022-12-18T10:00:19;103558.92;;;-1.74;66.66
60697;BME280;46536;54.376;19.858;2022-12-18T10:02:52;103564.73;;;-1.59;66.01
60697;BME280;46536;54.376;19.858;2022-12-18T10:07:58;103570.07;;;-1.35;65.58
60697;BME280;46536;54.376;19.858;2022-12-18T10:11:20;103565.56;;;-1.25;65.31
60697;BME280;46536;54.376;19.858;2022-12-18T10:16:11;103559.65;;;-1.09;65.00
60697;BME280;46536;54.376;19.858;2022-12-18T10:27:07;103562.58;;;-0.72;63.79
60697;BME280;46536;54.376;19.858;2022-12-18T10:29:41;103566.79;;;-0.67;63.62
60697;BME280;46536;54.376;19.858;2022-12-18T10:32:23;103570.61;;;-0.63;63.19
60697;BME280;46536;54.376;19.858;2022-12-18T10:34:56;103565.23;;;-0.64;62.88
60697;BME280;46536;54.376;19.858;2022-12-18T10:37:31;103571.57;;;-0.64;63.39
60697;BME280;46536;54.376;19.858;2022-12-18T10:40:14;103578.41;;;-0.54;63.49
60697;BME280;46536;54.376;19.858;2022-12-18T10:43:11;103583.08;;;-0.44;63.12
60697;BME280;46536;54.376;19.858;2022-12-18T10:45:41;103575.67;;;-0.33;62.96
60697;BME280;46536;54.376;19.858;2022-12-18T10:48:19;103573.98;;;-0.29;62.67
60697;BME280;46536;54.376;19.858;2022-12-18T10:50:52;103569.96;;;-0.24;62.87
60697;BME280;46536;54.376;19.858;2022-12-18T10:53:59;103569.77;;;-0.15;62.80
60697;BME280;46536;54.376;19.858;2022-12-18T10:56:35;103566.72;;;-0.02;62.65
60697;BME280;46536;54.376;19.858;2022-12-18T10:59:13;103564.91;;;0.10;62.27
60697;BME280;46536;54.376;19.858;2022-12-18T11:01:57;103563.81;;;0.18;62.02
60697;BME280;46536;54.376;19.858;2022-12-18T11:04:33;103561.71;;;0.23;61.59
60697;BME280;46536;54.376;19.858;2022-12-18T11:07:08;103563.63;;;0.24;61.62
60697;BME280;46536;54.376;19.858;2022-12-18T11:09:42;103560.82;;;0.26;61.56
60697;BME280;46536;54.376;19.858;2022-12-18T11:12:19;103561.73;;;0.27;61.45
60697;BME280;46536;54.376;19.858;2022-12-18T11:14:57;103567.11;;;0.25;61.43
60697;BME280;46536;54.376;19.858;2022-12-18T11:17:34;103570.59;;;0.30;61.43
60697;BME280;46536;54.376;19.858;2022-12-18T11:20:21;103572.41;;;0.35;61.40
60697;BME280;46536;54.376;19.858;2022-12-18T11:23:03;103576.09;;;0.40;61.36
60697;BME280;46536;54.376;19.858;2022-12-18T11:25:37;103566.50;;;0.47;61.33
60697;BME280;46536;54.376;19.858;2022-12-18T11:28:34;103563.20;;;0.55;61.26
60697;BME280;46536;54.376;19.858;2022-12-18T11:34:26;103553.65;;;0.74;61.08
60697;BME280;46536;54.376;19.858;2022-12-18T11:37:01;103546.34;;;0.78;60.75
60697;BME280;46536;54.376;19.858;2022-12-18T11:39:44;103549.57;;;0.85;60.63
60697;BME280;46536;54.376;19.858;2022-12-18T11:45:34;103564.86;;;1.00;60.56
60697;BME280;46536;54.376;19.858;2022-12-18T11:48:30;103570.39;;;1.12;60.33
60697;BME280;46536;54.376;19.858;2022-12-18T11:59:50;103577.57;;;1.58;59.88
60697;BME280;46536;54.376;19.858;2022-12-18T12:05:45;103597.20;;;1.49;59.24
60697;BME280;46536;54.376;19.858;2022-12-18T12:11:37;103609.06;;;1.65;59.52
60697;BME280;46536;54.376;19.858;2022-12-18T12:16:58;103605.50;;;1.73;58.95
60697;BME280;46536;54.376;19.858;2022-12-18T12:25:43;103612.20;;;1.34;58.94
60697;BME280;46536;54.376;19.858;2022-12-18T12:30:59;103624.73;;;1.13;58.92
60697;BME280;46536;54.376;19.858;2022-12-18T12:37:08;103622.87;;;1.03;59.13
60697;BME280;46536;54.376;19.858;2022-12-18T12:39:42;103628.61;;;0.95;59.41
60697;BME280;46536;54.376;19.858;2022-12-18T12:42:19;103630.63;;;0.94;59.25
60697;BME280;46536;54.376;19.858;2022-12-18T12:45:16;103625.44;;;0.93;59.50
60697;BME280;46536;54.376;19.858;2022-12-18T12:47:48;103622.52;;;0.96;59.46
60697;BME280;46536;54.376;19.858;2022-12-18T12:50:20;103626.04;;;0.98;59.32
60697;BME280;46536;54.376;19.858;2022-12-18T12:52:54;103628.56;;;1.01;59.31
60697;BME280;46536;54.376;19.858;2022-12-18T12:55:26;103629.77;;;1.01;59.01
60697;BME280;46536;54.376;19.858;2022-12-18T13:00:35;103630.05;;;0.83;58.79
60697;BME280;46536;54.376;19.858;2022-12-18T13:06:00;103627.95;;;0.45;58.65
60697;BME280;46536;54.376;19.858;2022-12-18T13:08:52;103630.07;;;0.23;58.93
60697;BME280;46536;54.376;19.858;2022-12-18T13:11:44;103630.48;;;-0.01;59.19
60697;BME280;46536;54.376;19.858;2022-12-18T13:14:37;103631.02;;;-0.26;59.56
60697;BME280;46536;54.376;19.858;2022-12-18T13:20:02;103628.97;;;-0.69;59.98
60697;BME280;46536;54.376;19.858;2022-12-18T13:22:39;103630.59;;;-0.89;60.29
60697;BME280;46536;54.376;19.858;2022-12-18T13:25:32;103634.44;;;-1.07;60.51
60697;BME280;46536;54.376;19.858;2022-12-18T13:46:44;103647.05;;;-2.25;62.62
60697;BME280;46536;54.376;19.858;2022-12-18T13:51:44;103655.57;;;-2.47;62.83
60697;BME280;46536;54.376;19.858;2022-12-18T13:54:32;103657.42;;;-2.55;63.12
60697;BME280;46536;54.376;19.858;2022-12-18T13:57:04;103666.77;;;-2.62;63.14
60697;BME280;46536;54.376;19.858;2022-12-18T13:59:39;103669.77;;;-2.66;63.44
60697;BME280;46536;54.376;19.858;2022-12-18T14:04:41;103674.32;;;-2.72;63.56
60697;BME280;46536;54.376;19.858;2022-12-18T14:20:52;103686.27;;;-2.93;63.58
60697;BME280;46536;54.376;19.858;2022-12-18T14:23:39;103686.05;;;-2.98;63.57
60697;BME280;46536;54.376;19.858;2022-12-18T14:26:26;103681.23;;;-3.04;63.49
60697;BME280;46536;54.376;19.858;2022-12-18T14:29:01;103685.34;;;-3.12;63.61
60697;BME280;46536;54.376;19.858;2022-12-18T14:32:13;103682.46;;;-3.19;63.73
60697;BME280;46536;54.376;19.858;2022-12-18T14:34:48;103689.85;;;-3.28;63.81
60697;BME280;46536;54.376;19.858;2022-12-18T14:37:23;103689.86;;;-3.38;63.93
60697;BME280;46536;54.376;19.858;2022-12-18T14:40:04;103688.23;;;-3.49;64.34
60697;BME280;46536;54.376;19.858;2022-12-18T14:42:38;103688.59;;;-3.58;64.14
60697;BME280;46536;54.376;19.858;2022-12-18T14:45:35;103692.21;;;-3.65;64.28
60697;BME280;46536;54.376;19.858;2022-12-18T14:48:25;103691.31;;;-3.76;64.67
60697;BME280;46536;54.376;19.858;2022-12-18T14:51:04;103692.02;;;-3.83;64.91
60697;BME280;46536;54.376;19.858;2022-12-18T14:53:40;103682.75;;;-3.88;64.63
60697;BME280;46536;54.376;19.858;2022-12-18T14:56:22;103680.09;;;-3.95;65.20
60697;BME280;46536;54.376;19.858;2022-12-18T14:58:57;103673.31;;;-4.02;65.73
60697;BME280;46536;54.376;19.858;2022-12-18T15:04:01;103670.11;;;-4.11;65.64
60697;BME280;46536;54.376;19.858;2022-12-18T15:06:36;103668.39;;;-4.17;66.07
60697;BME280;46536;54.376;19.858;2022-12-18T15:09:23;103668.16;;;-4.22;66.19
60697;BME280;46536;54.376;19.858;2022-12-18T15:11:59;103675.98;;;-4.27;66.34
60697;BME280;46536;54.376;19.858;2022-12-18T15:14:39;103677.20;;;-4.29;66.43
60697;BME280;46536;54.376;19.858;2022-12-18T15:17:21;103673.05;;;-4.30;67.03
60697;BME280;46536;54.376;19.858;2022-12-18T15:19:57;103679.87;;;-4.32;67.62
60697;BME280;46536;54.376;19.858;2022-12-18T15:22:33;103678.89;;;-4.36;67.84